sensor_id;sensor_type;location;lat;lon;timestamp;P1;durP1;ratioP1;P2;durP2;ratioP2
28627;SDS011;15815;46.760;19.604;2024-01-11T05:34:10;131.35;;;40.65;;
28627;SDS011;15815;46.760;19.604;2024-01-11T05:46:48;117.05;;;35.90;;
28627;SDS011;15815;46.760;19.604;2024-01-11T05:49:14;196.63;;;50.35;;
28627;SDS011;15815;46.760;19.604;2024-01-11T05:54:32;242.15;;;61.88;;
28627;SDS011;15815;46.760;19.604;2024-01-11T05:57:05;231.43;;;56.58;;
28627;SDS011;15815;46.760;19.604;2024-01-11T05:59:44;209.18;;;52.25;;
28627;SDS011;15815;46.760;19.604;2024-01-11T06:02:12;183.40;;;52.25;;
28627;SDS011;15815;46.760;19.604;2024-01-11T06:04:38;170.07;;;52.15;;
28627;SDS011;15815;46.760;19.604;2024-01-11T06:07:11;137.63;;;46.85;;
28627;SDS011;15815;46.760;19.604;2024-01-11T06:09:57;134.02;;;45.55;;
28627;SDS011;15815;46.760;19.604;2024-01-11T06:12:24;139.18;;;47.05;;
28627;SDS011;15815;46.760;19.604;2024-01-11T06:14:49;152.90;;;47.95;;
28627;SDS011;15815;46.760;19.604;2024-01-11T06:17:20;135.15;;;44.00;;
28627;SDS011;15815;46.760;19.604;2024-01-11T06:19:46;143.02;;;43.58;;
28627;SDS011;15815;46.760;19.604;2024-01-11T06:28:50;79.43;;;28.17;;
28627;SDS011;15815;46.760;19.604;2024-01-11T06:34:38;102.30;;;34.83;;
28627;SDS011;15815;46.760;19.604;2024-01-11T06:37:04;97.85;;;34.75;;
28627;SDS011;15815;46.760;19.604;2024-01-11T06:39:37;119.45;;;40.65;;
28627;SDS011;15815;46.760;19.604;2024-01-11T06:42:12;109.60;;;37.22;;
28627;SDS011;15815;46.760;19.604;2024-01-11T06:44:38;91.85;;;32.45;;
28627;SDS011;15815;46.760;19.604;2024-01-11T06:47:03;149.65;;;39.13;;
28627;SDS011;15815;46.760;19.604;2024-01-11T06:59:47;197.48;;;63.53;;
28627;SDS011;15815;46.760;19.604;2024-01-11T07:03:11;158.35;;;53.20;;
28627;SDS011;15815;46.760;19.604;2024-01-11T07:06:01;156.98;;;51.53;;
28627;SDS011;15815;46.760;19.604;2024-01-11T07:08:51;168.25;;;56.90;;
28627;SDS011;15815;46.760;19.604;2024-01-11T07:11:17;163.73;;;56.40;;
28627;SDS011;15815;46.760;19.604;2024-01-11T07:13:43;168.73;;;64.22;;
28627;SDS011;15815;46.760;19.604;2024-01-11T07:16:09;257.50;;;82.60;;
28627;SDS011;15815;46.760;19.604;2024-01-11T07:18:35;239.25;;;79.25;;
28627;SDS011;15815;46.760;19.604;2024-01-11T07:21:05;208.38;;;69.18;;
28627;SDS011;15815;46.760;19.604;2024-01-11T07:23:30;219.27;;;68.97;;
28627;SDS011;15815;46.760;19.604;2024-01-11T07:25:56;211.85;;;68.97;;
28627;SDS011;15815;46.760;19.604;2024-01-11T07:28:29;176.18;;;62.03;;
28627;SDS011;15815;46.760;19.604;2024-01-11T07:30:55;148.98;;;55.97;;
28627;SDS011;15815;46.760;19.604;2024-01-11T07:33:21;137.13;;;54.22;;
28627;SDS011;15815;46.760;19.604;2024-01-11T07:38:30;92.80;;;40.20;;
28627;SDS011;15815;46.760;19.604;2024-01-11T07:40:56;93.10;;;42.55;;
28627;SDS011;15815;46.760;19.604;2024-01-11T07:43:36;86.28;;;42.20;;
28627;SDS011;15815;46.760;19.604;2024-01-11T07:46:05;82.93;;;40.95;;
28627;SDS011;15815;46.760;19.604;2024-01-11T07:48:33;80.78;;;35.83;;
28627;SDS011;15815;46.760;19.604;2024-01-11T07:51:03;84.65;;;37.65;;
28627;SDS011;15815;46.760;19.604;2024-01-11T07:53:49;67.13;;;31.98;;
28627;SDS011;15815;46.760;19.604;2024-01-11T07:56:16;68.78;;;33.08;;
28627;SDS011;15815;46.760;19.604;2024-01-11T07:58:42;62.75;;;28.83;;
28627;SDS011;15815;46.760;19.604;2024-01-11T08:01:08;64.18;;;30.80;;
28627;SDS011;15815;46.760;19.604;2024-01-11T08:03:34;57.33;;;28.00;;
28627;SDS011;15815;46.760;19.604;2024-01-11T08:06:00;57.92;;;28.80;;
28627;SDS011;15815;46.760;19.604;2024-01-11T08:08:26;49.17;;;26.05;;
28627;SDS011;15815;46.760;19.604;2024-01-11T08:10:52;53.88;;;26.50;;
28627;SDS011;15815;46.760;19.604;2024-01-11T08:13:18;49.53;;;25.33;;
28627;SDS011;15815;46.760;19.604;2024-01-11T08:15:45;56.55;;;28.20;;
28627;SDS011;15815;46.760;19.604;2024-01-11T08:18:11;47.33;;;23.77;;
28627;SDS011;15815;46.760;19.604;2024-01-11T08:20:42;52.50;;;24.60;;
28627;SDS011;15815;46.760;19.604;2024-01-11T08:23:11;47.17;;;25.20;;
28627;SDS011;15815;46.760;19.604;2024-01-11T08:25:43;52.35;;;27.35;;
28627;SDS011;15815;46.760;19.604;2024-01-11T08:28:11;58.63;;;28.33;;
28627;SDS011;15815;46.760;19.604;2024-01-11T08:30:37;52.42;;;24.70;;
28627;SDS011;15815;46.760;19.604;2024-01-11T08:33:03;50.22;;;25.80;;
28627;SDS011;15815;46.760;19.604;2024-01-11T08:35:30;49.03;;;23.75;;
28627;SDS011;15815;46.760;19.604;2024-01-11T08:37:56;48.20;;;26.52;;
28627;SDS011;15815;46.760;19.604;2024-01-11T08:40:34;45.35;;;24.52;;
28627;SDS011;15815;46.760;19.604;2024-01-11T08:43:00;48.25;;;26.90;;
28627;SDS011;15815;46.760;19.604;2024-01-11T08:45:26;53.75;;;26.33;;
28627;SDS011;15815;46.760;19.604;2024-01-11T08:47:52;41.53;;;24.30;;
28627;SDS011;15815;46.760;19.604;2024-01-11T08:50:18;49.17;;;25.75;;
28627;SDS011;15815;46.760;19.604;2024-01-11T08:52:44;50.67;;;25.65;;
28627;SDS011;15815;46.760;19.604;2024-01-11T08:55:09;47.58;;;23.67;;
28627;SDS011;15815;46.760;19.604;2024-01-11T08:57:51;45.17;;;23.98;;
28627;SDS011;15815;46.760;19.604;2024-01-11T09:00:17;46.28;;;25.02;;
28627;SDS011;15815;46.760;19.604;2024-01-11T09:02:43;48.10;;;25.67;;
28627;SDS011;15815;46.760;19.604;2024-01-11T09:05:13;43.72;;;22.63;;
28627;SDS011;15815;46.760;19.604;2024-01-11T09:07:39;39.35;;;21.67;;
28627;SDS011;15815;46.760;19.604;2024-01-11T09:10:05;38.95;;;20.77;;
28627;SDS011;15815;46.760;19.604;2024-01-11T09:12:32;33.47;;;19.17;;
28627;SDS011;15815;46.760;19.604;2024-01-11T09:14:57;37.28;;;20.23;;
28627;SDS011;15815;46.760;19.604;2024-01-11T09:17:23;38.13;;;20.02;;
28627;SDS011;15815;46.760;19.604;2024-01-11T09:19:49;37.70;;;18.75;;
28627;SDS011;15815;46.760;19.604;2024-01-11T09:22:24;34.80;;;19.30;;
28627;SDS011;15815;46.760;19.604;2024-01-11T09:24:50;33.95;;;18.23;;
28627;SDS011;15815;46.760;19.604;2024-01-11T09:27:16;32.20;;;18.33;;
28627;SDS011;15815;46.760;19.604;2024-01-11T09:29:42;32.72;;;19.42;;
28627;SDS011;15815;46.760;19.604;2024-01-11T09:32:11;26.70;;;16.50;;
28627;SDS011;15815;46.760;19.604;2024-01-11T09:34:38;30.48;;;17.38;;
28627;SDS011;15815;46.760;19.604;2024-01-11T09:37:04;33.63;;;18.67;;
28627;SDS011;15815;46.760;19.604;2024-01-11T09:39:29;32.67;;;18.00;;
28627;SDS011;15815;46.760;19.604;2024-01-11T09:42:04;33.92;;;19.08;;
28627;SDS011;15815;46.760;19.604;2024-01-11T09:44:46;30.48;;;17.40;;
28627;SDS011;15815;46.760;19.604;2024-01-11T09:47:15;29.50;;;15.82;;
28627;SDS011;15815;46.760;19.604;2024-01-11T09:49:58;28.63;;;17.13;;
28627;SDS011;15815;46.760;19.604;2024-01-11T09:52:27;31.33;;;17.23;;
28627;SDS011;15815;46.760;19.604;2024-01-11T09:54:54;29.08;;;17.05;;
28627;SDS011;15815;46.760;19.604;2024-01-11T09:57:24;31.48;;;17.50;;
28627;SDS011;15815;46.760;19.604;2024-01-11T09:59:54;28.20;;;17.08;;
28627;SDS011;15815;46.760;19.604;2024-01-11T10:02:22;27.60;;;17.63;;
28627;SDS011;15815;46.760;19.604;2024-01-11T10:04:49;25.65;;;15.68;;
28627;SDS011;15815;46.760;19.604;2024-01-11T10:07:15;27.23;;;15.13;;
28627;SDS011;15815;46.760;19.604;2024-01-11T10:09:46;28.40;;;16.45;;
28627;SDS011;15815;46.760;19.604;2024-01-11T10:12:12;27.83;;;15.85;;
28627;SDS011;15815;46.760;19.604;2024-01-11T10:14:38;27.77;;;15.05;;
28627;SDS011;15815;46.760;19.604;2024-01-11T10:17:04;27.33;;;14.93;;
28627;SDS011;15815;46.760;19.604;2024-01-11T10:22:02;27.58;;;16.17;;
28627;SDS011;15815;46.760;19.604;2024-01-11T10:24:28;22.60;;;13.77;;
28627;SDS011;15815;46.760;19.604;2024-01-11T10:26:55;23.02;;;13.90;;
28627;SDS011;15815;46.760;19.604;2024-01-11T10:29:21;26.00;;;14.68;;
28627;SDS011;15815;46.760;19.604;2024-01-11T10:31:50;19.52;;;13.10;;
28627;SDS011;15815;46.760;19.604;2024-01-11T10:34:17;22.15;;;13.15;;
28627;SDS011;15815;46.760;19.604;2024-01-11T10:36:47;23.88;;;12.98;;
28627;SDS011;15815;46.760;19.604;2024-01-11T10:39:13;22.42;;;13.57;;
28627;SDS011;15815;46.760;19.604;2024-01-11T10:41:50;23.20;;;12.45;;
28627;SDS011;15815;46.760;19.604;2024-01-11T10:44:19;20.10;;;10.95;;
28627;SDS011;15815;46.760;19.604;2024-01-11T10:46:50;19.95;;;12.80;;
28627;SDS011;15815;46.760;19.604;2024-01-11T10:49:21;24.13;;;12.27;;
28627;SDS011;15815;46.760;19.604;2024-01-11T10:52:13;21.25;;;12.88;;
28627;SDS011;15815;46.760;19.604;2024-01-11T10:54:44;19.25;;;11.77;;
28627;SDS011;15815;46.760;19.604;2024-01-11T10:57:15;24.25;;;12.05;;
28627;SDS011;15815;46.760;19.604;2024-01-11T10:59:43;23.85;;;13.35;;
28627;SDS011;15815;46.760;19.604;2024-01-11T11:02:11;22.25;;;12.90;;
28627;SDS011;15815;46.760;19.604;2024-01-11T11:04:41;19.92;;;12.80;;
28627;SDS011;15815;46.760;19.604;2024-01-11T11:07:07;21.70;;;11.23;;
28627;SDS011;15815;46.760;19.604;2024-01-11T11:09:34;21.65;;;11.68;;
28627;SDS011;15815;46.760;19.604;2024-01-11T11:12:03;17.98;;;10.13;;
28627;SDS011;15815;46.760;19.604;2024-01-11T11:14:32;16.50;;;11.00;;
28627;SDS011;15815;46.760;19.604;2024-01-11T11:17:00;20.27;;;11.45;;
28627;SDS011;15815;46.760;19.604;2024-01-11T11:19:25;21.10;;;11.77;;
28627;SDS011;15815;46.760;19.604;2024-01-11T11:21:53;20.30;;;12.32;;
28627;SDS011;15815;46.760;19.604;2024-01-11T11:24:22;21.88;;;12.32;;
28627;SDS011;15815;46.760;19.604;2024-01-11T11:26:54;23.63;;;13.27;;
28627;SDS011;15815;46.760;19.604;2024-01-11T11:29:22;19.08;;;10.32;;
28627;SDS011;15815;46.760;19.604;2024-01-11T11:31:56;21.95;;;10.18;;
28627;SDS011;15815;46.760;19.604;2024-01-11T11:34:43;19.45;;;11.23;;
28627;SDS011;15815;46.760;19.604;2024-01-11T11:37:11;25.88;;;13.75;;
28627;SDS011;15815;46.760;19.604;2024-01-11T11:42:24;17.52;;;10.32;;
28627;SDS011;15815;46.760;19.604;2024-01-11T11:45:10;20.85;;;11.32;;
28627;SDS011;15815;46.760;19.604;2024-01-11T11:47:51;17.88;;;10.25;;
28627;SDS011;15815;46.760;19.604;2024-01-11T11:50:17;20.75;;;11.68;;
28627;SDS011;15815;46.760;19.604;2024-01-11T11:52:47;22.23;;;13.93;;
28627;SDS011;15815;46.760;19.604;2024-01-11T11:57:51;17.05;;;10.13;;
28627;SDS011;15815;46.760;19.604;2024-01-11T12:00:19;19.75;;;10.20;;
28627;SDS011;15815;46.760;19.604;2024-01-11T12:02:48;17.10;;;10.20;;
28627;SDS011;15815;46.760;19.604;2024-01-11T12:05:16;16.48;;;10.15;;
28627;SDS011;15815;46.760;19.604;2024-01-11T12:07:42;19.42;;;11.63;;
28627;SDS011;15815;46.760;19.604;2024-01-11T12:10:08;15.90;;;9.23;;
28627;SDS011;15815;46.760;19.604;2024-01-11T12:12:35;12.57;;;8.02;;
28627;SDS011;15815;46.760;19.604;2024-01-11T12:15:04;15.07;;;8.27;;
28627;SDS011;15815;46.760;19.604;2024-01-11T12:17:30;21.23;;;9.40;;
28627;SDS011;15815;46.760;19.604;2024-01-11T12:23:09;14.23;;;7.80;;
28627;SDS011;15815;46.760;19.604;2024-01-11T12:25:37;13.88;;;8.13;;
28627;SDS011;15815;46.760;19.604;2024-01-11T12:28:03;14.45;;;9.18;;
28627;SDS011;15815;46.760;19.604;2024-01-11T12:30:34;16.42;;;9.68;;
28627;SDS011;15815;46.760;19.604;2024-01-11T12:33:00;14.18;;;7.07;;
28627;SDS011;15815;46.760;19.604;2024-01-11T12:35:26;13.95;;;8.18;;
28627;SDS011;15815;46.760;19.604;2024-01-11T12:38:00;16.98;;;9.63;;
28627;SDS011;15815;46.760;19.604;2024-01-11T12:40:31;13.88;;;8.45;;
28627;SDS011;15815;46.760;19.604;2024-01-11T12:45:29;11.93;;;6.82;;
28627;SDS011;15815;46.760;19.604;2024-01-11T12:48:00;13.32;;;7.88;;
28627;SDS011;15815;46.760;19.604;2024-01-11T12:50:27;15.88;;;7.53;;
28627;SDS011;15815;46.760;19.604;2024-01-11T12:53:09;13.57;;;7.72;;
28627;SDS011;15815;46.760;19.604;2024-01-11T12:55:39;15.05;;;8.05;;
28627;SDS011;15815;46.760;19.604;2024-01-11T12:58:07;13.95;;;8.10;;
28627;SDS011;15815;46.760;19.604;2024-01-11T13:00:33;14.68;;;7.55;;
28627;SDS011;15815;46.760;19.604;2024-01-11T13:03:16;12.25;;;7.65;;
28627;SDS011;15815;46.760;19.604;2024-01-11T13:05:44;16.02;;;8.18;;
28627;SDS011;15815;46.760;19.604;2024-01-11T13:08:10;14.90;;;8.50;;
28627;SDS011;15815;46.760;19.604;2024-01-11T13:10:46;23.15;;;11.27;;
28627;SDS011;15815;46.760;19.604;2024-01-11T13:13:12;21.88;;;9.77;;
28627;SDS011;15815;46.760;19.604;2024-01-11T13:15:38;24.35;;;10.57;;
28627;SDS011;15815;46.760;19.604;2024-01-11T13:18:07;19.85;;;9.30;;
28627;SDS011;15815;46.760;19.604;2024-01-11T13:20:33;17.13;;;9.18;;
28627;SDS011;15815;46.760;19.604;2024-01-11T13:23:12;19.95;;;10.15;;
28627;SDS011;15815;46.760;19.604;2024-01-11T13:25:45;23.40;;;10.93;;
28627;SDS011;15815;46.760;19.604;2024-01-11T13:28:15;20.25;;;9.75;;
28627;SDS011;15815;46.760;19.604;2024-01-11T13:30:43;21.10;;;10.93;;
28627;SDS011;15815;46.760;19.604;2024-01-11T13:33:10;30.60;;;11.82;;
28627;SDS011;15815;46.760;19.604;2024-01-11T13:35:38;25.42;;;12.15;;
28627;SDS011;15815;46.760;19.604;2024-01-11T13:38:04;24.05;;;11.93;;
28627;SDS011;15815;46.760;19.604;2024-01-11T13:40:31;22.08;;;10.10;;
28627;SDS011;15815;46.760;19.604;2024-01-11T13:42:58;18.48;;;9.07;;
28627;SDS011;15815;46.760;19.604;2024-01-11T13:45:25;17.17;;;8.82;;
28627;SDS011;15815;46.760;19.604;2024-01-11T14:40:26;22.58;;;12.57;;
28627;SDS011;15815;46.760;19.604;2024-01-11T14:42:52;21.48;;;11.13;;
28627;SDS011;15815;46.760;19.604;2024-01-11T14:45:18;24.98;;;10.75;;
28627;SDS011;15815;46.760;19.604;2024-01-11T14:50:12;22.17;;;9.90;;
28627;SDS011;15815;46.760;19.604;2024-01-11T15:11:23;31.92;;;12.07;;
28627;SDS011;15815;46.760;19.604;2024-01-11T15:13:49;28.55;;;12.65;;
28627;SDS011;15815;46.760;19.604;2024-01-11T15:16:16;27.23;;;12.90;;
28627;SDS011;15815;46.760;19.604;2024-01-11T15:18:42;26.83;;;13.35;;
28627;SDS011;15815;46.760;19.604;2024-01-11T15:21:08;29.63;;;13.23;;
28627;SDS011;15815;46.760;19.604;2024-01-11T15:23:43;27.27;;;13.25;;
28627;SDS011;15815;46.760;19.604;2024-01-11T15:26:09;31.17;;;13.27;;
28627;SDS011;15815;46.760;19.604;2024-01-11T15:28:34;28.35;;;12.57;;
28627;SDS011;15815;46.760;19.604;2024-01-11T15:31:00;34.20;;;15.40;;
28627;SDS011;15815;46.760;19.604;2024-01-11T15:33:33;27.65;;;14.52;;
28627;SDS011;15815;46.760;19.604;2024-01-11T15:36:17;34.40;;;13.75;;
28627;SDS011;15815;46.760;19.604;2024-01-11T15:38:44;28.05;;;13.38;;
28627;SDS011;15815;46.760;19.604;2024-01-11T15:41:10;33.80;;;14.60;;
28627;SDS011;15815;46.760;19.604;2024-01-11T15:43:45;28.17;;;12.48;;
28627;SDS011;15815;46.760;19.604;2024-01-11T15:46:10;31.13;;;14.02;;
28627;SDS011;15815;46.760;19.604;2024-01-11T15:48:36;37.45;;;14.80;;
28627;SDS011;15815;46.760;19.604;2024-01-11T15:51:03;36.25;;;14.02;;
28627;SDS011;15815;46.760;19.604;2024-01-11T15:53:35;38.40;;;16.25;;
28627;SDS011;15815;46.760;19.604;2024-01-11T15:56:01;35.05;;;14.30;;
28627;SDS011;15815;46.760;19.604;2024-01-11T15:58:27;41.78;;;16.73;;
28627;SDS011;15815;46.760;19.604;2024-01-11T16:00:52;37.25;;;14.32;;
28627;SDS011;15815;46.760;19.604;2024-01-11T16:03:18;32.72;;;15.98;;
28627;SDS011;15815;46.760;19.604;2024-01-11T16:05:46;31.98;;;14.88;;
28627;SDS011;15815;46.760;19.604;2024-01-11T16:08:18;38.92;;;17.55;;
28627;SDS011;15815;46.760;19.604;2024-01-11T16:10:55;38.45;;;16.38;;
28627;SDS011;15815;46.760;19.604;2024-01-11T16:13:20;44.83;;;19.15;;
28627;SDS011;15815;46.760;19.604;2024-01-11T16:15:49;33.53;;;16.17;;
28627;SDS011;15815;46.760;19.604;2024-01-11T16:18:14;31.08;;;15.88;;
28627;SDS011;15815;46.760;19.604;2024-01-11T16:20:43;34.20;;;16.13;;
28627;SDS011;15815;46.760;19.604;2024-01-11T16:23:09;35.88;;;15.15;;
28627;SDS011;15815;46.760;19.604;2024-01-11T16:25:34;32.25;;;14.65;;
28627;SDS011;15815;46.760;19.604;2024-01-11T16:28:00;34.60;;;15.55;;
28627;SDS011;15815;46.760;19.604;2024-01-11T16:30:30;31.40;;;14.90;;
28627;SDS011;15815;46.760;19.604;2024-01-11T16:33:08;29.95;;;14.57;;
28627;SDS011;15815;46.760;19.604;2024-01-11T16:35:33;28.73;;;13.52;;
28627;SDS011;15815;46.760;19.604;2024-01-11T16:38:08;29.58;;;13.63;;
28627;SDS011;15815;46.760;19.604;2024-01-11T16:40:34;30.48;;;13.77;;
28627;SDS011;15815;46.760;19.604;2024-01-11T16:43:10;30.48;;;14.82;;
28627;SDS011;15815;46.760;19.604;2024-01-11T16:45:38;35.45;;;17.63;;
28627;SDS011;15815;46.760;19.604;2024-01-11T16:48:04;31.80;;;15.00;;
28627;SDS011;15815;46.760;19.604;2024-01-11T16:50:30;29.45;;;13.95;;
28627;SDS011;15815;46.760;19.604;2024-01-11T16:53:07;34.40;;;14.77;;
28627;SDS011;15815;46.760;19.604;2024-01-11T16:55:32;35.72;;;14.90;;
28627;SDS011;15815;46.760;19.604;2024-01-11T16:57:58;28.55;;;13.73;;
28627;SDS011;15815;46.760;19.604;2024-01-11T17:00:29;36.00;;;15.68;;
28627;SDS011;15815;46.760;19.604;2024-01-11T17:02:58;31.23;;;15.75;;
28627;SDS011;15815;46.760;19.604;2024-01-11T17:05:26;29.35;;;14.18;;
28627;SDS011;15815;46.760;19.604;2024-01-11T17:07:54;30.27;;;15.07;;
28627;SDS011;15815;46.760;19.604;2024-01-11T17:10:19;26.75;;;13.43;;
28627;SDS011;15815;46.760;19.604;2024-01-11T17:12:45;35.65;;;14.77;;
28627;SDS011;15815;46.760;19.604;2024-01-11T17:15:20;29.67;;;14.23;;
28627;SDS011;15815;46.760;19.604;2024-01-11T17:17:46;31.63;;;14.32;;
28627;SDS011;15815;46.760;19.604;2024-01-11T17:20:13;31.25;;;14.57;;
28627;SDS011;15815;46.760;19.604;2024-01-11T17:25:10;28.77;;;13.18;;
28627;SDS011;15815;46.760;19.604;2024-01-11T17:27:35;37.83;;;15.07;;
28627;SDS011;15815;46.760;19.604;2024-01-11T17:30:03;31.90;;;14.90;;
28627;SDS011;15815;46.760;19.604;2024-01-11T17:32:29;33.88;;;14.60;;
28627;SDS011;15815;46.760;19.604;2024-01-11T17:34:54;32.63;;;14.98;;
28627;SDS011;15815;46.760;19.604;2024-01-11T17:37:20;35.42;;;15.77;;
28627;SDS011;15815;46.760;19.604;2024-01-11T17:39:50;33.90;;;15.93;;
28627;SDS011;15815;46.760;19.604;2024-01-11T17:42:16;41.03;;;16.27;;
28627;SDS011;15815;46.760;19.604;2024-01-11T17:44:44;32.88;;;15.45;;
28627;SDS011;15815;46.760;19.604;2024-01-11T17:47:10;34.08;;;16.42;;
28627;SDS011;15815;46.760;19.604;2024-01-11T17:49:37;35.70;;;16.08;;
28627;SDS011;15815;46.760;19.604;2024-01-11T17:52:05;34.22;;;15.18;;
28627;SDS011;15815;46.760;19.604;2024-01-11T17:54:40;33.60;;;15.27;;
28627;SDS011;15815;46.760;19.604;2024-01-11T18:00:10;35.00;;;14.77;;
28627;SDS011;15815;46.760;19.604;2024-01-11T18:02:42;32.00;;;14.02;;
28627;SDS011;15815;46.760;19.604;2024-01-11T18:05:17;37.35;;;16.35;;
28627;SDS011;15815;46.760;19.604;2024-01-11T18:07:45;37.08;;;15.95;;
28627;SDS011;15815;46.760;19.604;2024-01-11T18:10:16;42.63;;;18.58;;
28627;SDS011;15815;46.760;19.604;2024-01-11T18:12:45;34.67;;;16.65;;
28627;SDS011;15815;46.760;19.604;2024-01-11T18:18:53;36.05;;;15.70;;
28627;SDS011;15815;46.760;19.604;2024-01-11T18:21:21;31.17;;;16.25;;
28627;SDS011;15815;46.760;19.604;2024-01-11T18:23:49;32.78;;;14.73;;
28627;SDS011;15815;46.760;19.604;2024-01-11T18:26:33;30.85;;;14.85;;
28627;SDS011;15815;46.760;19.604;2024-01-11T18:29:12;34.30;;;16.05;;
28627;SDS011;15815;46.760;19.604;2024-01-11T18:31:38;32.28;;;14.25;;
28627;SDS011;15815;46.760;19.604;2024-01-11T18:34:03;32.47;;;15.38;;
28627;SDS011;15815;46.760;19.604;2024-01-11T18:36:30;35.97;;;16.23;;
28627;SDS011;15815;46.760;19.604;2024-01-11T18:38:56;40.47;;;17.90;;
28627;SDS011;15815;46.760;19.604;2024-01-11T18:41:21;44.80;;;18.83;;
28627;SDS011;15815;46.760;19.604;2024-01-11T18:43:52;40.75;;;17.08;;
28627;SDS011;15815;46.760;19.604;2024-01-11T18:46:18;43.97;;;19.17;;
28627;SDS011;15815;46.760;19.604;2024-01-11T18:49:05;49.10;;;18.63;;
28627;SDS011;15815;46.760;19.604;2024-01-11T18:51:41;47.92;;;19.35;;
28627;SDS011;15815;46.760;19.604;2024-01-11T18:54:07;35.30;;;15.48;;
28627;SDS011;15815;46.760;19.604;2024-01-11T18:56:34;35.83;;;15.55;;
28627;SDS011;15815;46.760;19.604;2024-01-11T19:17:21;38.28;;;15.50;;
28627;SDS011;15815;46.760;19.604;2024-01-11T19:19:47;48.92;;;18.75;;
28627;SDS011;15815;46.760;19.604;2024-01-11T19:22:14;39.58;;;16.65;;
28627;SDS011;15815;46.760;19.604;2024-01-11T19:24:39;40.13;;;16.92;;
28627;SDS011;15815;46.760;19.604;2024-01-11T19:27:05;42.33;;;16.73;;
28627;SDS011;15815;46.760;19.604;2024-01-11T19:29:35;37.85;;;16.67;;
28627;SDS011;15815;46.760;19.604;2024-01-11T19:32:00;39.83;;;17.15;;
28627;SDS011;15815;46.760;19.604;2024-01-11T19:34:29;38.08;;;15.15;;
28627;SDS011;15815;46.760;19.604;2024-01-11T19:36:58;33.97;;;15.48;;
28627;SDS011;15815;46.760;19.604;2024-01-11T19:39:23;33.08;;;15.70;;
28627;SDS011;15815;46.760;19.604;2024-01-11T19:41:49;38.72;;;17.52;;
28627;SDS011;15815;46.760;19.604;2024-01-11T19:44:18;44.25;;;19.77;;
28627;SDS011;15815;46.760;19.604;2024-01-11T19:46:47;41.88;;;18.23;;
28627;SDS011;15815;46.760;19.604;2024-01-11T19:49:13;34.35;;;16.80;;
28627;SDS011;15815;46.760;19.604;2024-01-11T19:51:40;36.88;;;17.50;;
28627;SDS011;15815;46.760;19.604;2024-01-11T19:54:06;31.98;;;16.20;;
28627;SDS011;15815;46.760;19.604;2024-01-11T19:56:37;37.28;;;18.05;;
28627;SDS011;15815;46.760;19.604;2024-01-11T19:59:10;38.80;;;17.30;;
28627;SDS011;15815;46.760;19.604;2024-01-11T20:01:37;40.90;;;18.70;;
28627;SDS011;15815;46.760;19.604;2024-01-11T20:04:05;41.80;;;18.98;;
28627;SDS011;15815;46.760;19.604;2024-01-11T20:06:31;54.20;;;21.52;;
28627;SDS011;15815;46.760;19.604;2024-01-11T20:08:57;66.18;;;25.67;;
28627;SDS011;15815;46.760;19.604;2024-01-11T20:17:09;66.20;;;25.92;;
28627;SDS011;15815;46.760;19.604;2024-01-11T20:19:46;60.08;;;24.27;;
28627;SDS011;15815;46.760;19.604;2024-01-11T20:22:15;54.17;;;22.40;;
28627;SDS011;15815;46.760;19.604;2024-01-11T20:24:41;62.10;;;24.98;;
28627;SDS011;15815;46.760;19.604;2024-01-11T20:27:18;61.95;;;25.90;;
28627;SDS011;15815;46.760;19.604;2024-01-11T20:30:04;57.15;;;24.08;;
28627;SDS011;15815;46.760;19.604;2024-01-11T20:32:31;46.80;;;21.80;;
28627;SDS011;15815;46.760;19.604;2024-01-11T20:35:00;55.60;;;23.13;;
28627;SDS011;15815;46.760;19.604;2024-01-11T20:37:28;49.65;;;20.98;;
28627;SDS011;15815;46.760;19.604;2024-01-11T20:40:00;51.30;;;22.67;;
28627;SDS011;15815;46.760;19.604;2024-01-11T20:42:26;46.90;;;21.67;;
28627;SDS011;15815;46.760;19.604;2024-01-11T20:44:52;53.95;;;22.85;;
28627;SDS011;15815;46.760;19.604;2024-01-11T20:47:30;55.47;;;21.98;;
28627;SDS011;15815;46.760;19.604;2024-01-11T20:53:24;43.95;;;21.38;;
28627;SDS011;15815;46.760;19.604;2024-01-11T20:55:54;51.65;;;22.42;;
28627;SDS011;15815;46.760;19.604;2024-01-11T20:58:23;47.65;;;22.30;;
28627;SDS011;15815;46.760;19.604;2024-01-11T21:00:51;58.15;;;23.55;;
28627;SDS011;15815;46.760;19.604;2024-01-11T21:03:19;51.28;;;23.23;;
28627;SDS011;15815;46.760;19.604;2024-01-11T21:05:52;56.13;;;24.23;;
28627;SDS011;15815;46.760;19.604;2024-01-11T21:08:21;49.65;;;22.83;;
28627;SDS011;15815;46.760;19.604;2024-01-11T21:10:54;51.22;;;23.48;;
28627;SDS011;15815;46.760;19.604;2024-01-11T21:13:35;54.63;;;23.38;;
28627;SDS011;15815;46.760;19.604;2024-01-11T21:44:31;50.70;;;22.27;;
28627;SDS011;15815;46.760;19.604;2024-01-11T22:52:20;60.92;;;25.35;;
28627;SDS011;15815;46.760;19.604;2024-01-11T22:57:33;68.20;;;27.35;;
28627;SDS011;15815;46.760;19.604;2024-01-11T22:59:59;78.18;;;30.35;;
28627;SDS011;15815;46.760;19.604;2024-01-11T23:02:24;74.30;;;29.58;;
28627;SDS011;15815;46.760;19.604;2024-01-11T23:04:51;85.18;;;30.17;;
28627;SDS011;15815;46.760;19.604;2024-01-11T23:07:17;84.85;;;31.05;;
28627;SDS011;15815;46.760;19.604;2024-01-11T23:26:30;80.93;;;29.25;;
28627;SDS011;15815;46.760;19.604;2024-01-11T23:39:59;67.80;;;24.20;;
28627;SDS011;15815;46.760;19.604;2024-01-11T23:43:13;64.43;;;25.80;;
28627;SDS011;15815;46.760;19.604;2024-01-11T23:53:43;47.88;;;19.88;;
28627;SDS011;15815;46.760;19.604;2024-01-11T23:59:34;60.47;;;24.20;;
